sensor_id;sensor_type;location;lat;lon;timestamp;temperature;humidity
8611;DHT22;4343;53.648;10.098;2023-07-13T00:01:15;17.00;99.90
8611;DHT22;4343;53.648;10.098;2023-07-13T00:03:42;17.00;99.90
8611;DHT22;4343;53.648;10.098;2023-07-13T00:06:08;17.00;99.90
8611;DHT22;4343;53.648;10.098;2023-07-13T00:08:33;17.00;99.90
8611;DHT22;4343;53.648;10.098;2023-07-13T00:11:00;16.90;99.90
8611;DHT22;4343;53.648;10.098;2023-07-13T00:13:26;16.90;99.90
8611;DHT22;4343;53.648;10.098;2023-07-13T00:15:52;16.90;99.90
8611;DHT22;4343;53.648;10.098;2023-07-13T00:18:19;16.90;99.90
8611;DHT22;4343;53.648;10.098;2023-07-13T00:20:45;16.90;99.90
8611;DHT22;4343;53.648;10.098;2023-07-13T00:23:10;16.90;99.90
8611;DHT22;4343;53.648;10.098;2023-07-13T00:25:36;16.80;99.90
8611;DHT22;4343;53.648;10.098;2023-07-13T00:28:02;16.80;99.90
8611;DHT22;4343;53.648;10.098;2023-07-13T00:30:27;16.70;99.90
8611;DHT22;4343;53.648;10.098;2023-07-13T00:32:53;16.70;99.90
8611;DHT22;4343;53.648;10.098;2023-07-13T00:35:18;16.60;99.90
8611;DHT22;4343;53.648;10.098;2023-07-13T00:37:44;16.60;99.90
8611;DHT22;4343;53.648;10.098;2023-07-13T00:40:12;16.60;99.90
8611;DHT22;4343;53.648;10.098;2023-07-13T00:42:38;16.60;99.90
8611;DHT22;4343;53.648;10.098;2023-07-13T00:47:42;16.50;99.90
8611;DHT22;4343;53.648;10.098;2023-07-13T00:50:15;16.50;99.90
8611;DHT22;4343;53.648;10.098;2023-07-13T00:52:45;16.50;99.90
8611;DHT22;4343;53.648;10.098;2023-07-13T00:55:12;16.40;99.90
8611;DHT22;4343;53.648;10.098;2023-07-13T00:57:38;16.40;99.90
8611;DHT22;4343;53.648;10.098;2023-07-13T01:00:06;16.40;99.90
8611;DHT22;4343;53.648;10.098;2023-07-13T01:02:36;16.40;99.90
8611;DHT22;4343;53.648;10.098;2023-07-13T01:05:14;16.30;99.90
8611;DHT22;4343;53.648;10.098;2023-07-13T01:07:41;16.30;99.90
8611;DHT22;4343;53.648;10.098;2023-07-13T01:10:07;16.20;99.90
8611;DHT22;4343;53.648;10.098;2023-07-13T01:12:33;16.10;99.90
8611;DHT22;4343;53.648;10.098;2023-07-13T01:15:00;16.20;99.90
8611;DHT22;4343;53.648;10.098;2023-07-13T01:17:27;16.10;99.90
8611;DHT22;4343;53.648;10.098;2023-07-13T01:19:53;16.00;99.90
8611;DHT22;4343;53.648;10.098;2023-07-13T01:22:19;16.00;99.90
8611;DHT22;4343;53.648;10.098;2023-07-13T01:24:50;16.00;99.90
8611;DHT22;4343;53.648;10.098;2023-07-13T01:27:19;15.90;99.90
8611;DHT22;4343;53.648;10.098;2023-07-13T01:29:45;15.90;99.90
8611;DHT22;4343;53.648;10.098;2023-07-13T01:32:15;15.80;99.90
8611;DHT22;4343;53.648;10.098;2023-07-13T01:34:41;15.80;99.90
8611;DHT22;4343;53.648;10.098;2023-07-13T01:37:08;15.70;99.90
8611;DHT22;4343;53.648;10.098;2023-07-13T01:39:34;15.70;99.90
8611;DHT22;4343;53.648;10.098;2023-07-13T01:42:00;15.70;99.90
8611;DHT22;4343;53.648;10.098;2023-07-13T01:44:25;15.60;99.90
8611;DHT22;4343;53.648;10.098;2023-07-13T01:46:51;15.60;99.90
8611;DHT22;4343;53.648;10.098;2023-07-13T01:49:17;15.60;99.90
8611;DHT22;4343;53.648;10.098;2023-07-13T01:51:42;15.60;99.90
8611;DHT22;4343;53.648;10.098;2023-07-13T01:54:08;15.60;99.90
8611;DHT22;4343;53.648;10.098;2023-07-13T01:56:33;15.50;99.90
8611;DHT22;4343;53.648;10.098;2023-07-13T01:58:59;15.50;99.90
8611;DHT22;4343;53.648;10.098;2023-07-13T02:01:24;15.50;99.90
8611;DHT22;4343;53.648;10.098;2023-07-13T02:03:50;15.50;99.90
8611;DHT22;4343;53.648;10.098;2023-07-13T02:06:16;15.50;99.90
8611;DHT22;4343;53.648;10.098;2023-07-13T02:08:42;15.50;99.90
8611;DHT22;4343;53.648;10.098;2023-07-13T02:11:08;15.50;99.90
8611;DHT22;4343;53.648;10.098;2023-07-13T02:13:34;15.50;99.90
8611;DHT22;4343;53.648;10.098;2023-07-13T02:16:00;15.40;99.90
8611;DHT22;4343;53.648;10.098;2023-07-13T02:18:26;15.50;99.90
8611;DHT22;4343;53.648;10.098;2023-07-13T02:20:51;15.50;99.90
8611;DHT22;4343;53.648;10.098;2023-07-13T02:23:17;15.40;99.90
8611;DHT22;4343;53.648;10.098;2023-07-13T02:25:42;15.40;99.90
8611;DHT22;4343;53.648;10.098;2023-07-13T02:28:08;15.40;99.90
8611;DHT22;4343;53.648;10.098;2023-07-13T02:30:34;15.40;99.90
8611;DHT22;4343;53.648;10.098;2023-07-13T02:33:00;15.40;99.90
8611;DHT22;4343;53.648;10.098;2023-07-13T02:35:26;15.40;99.90
8611;DHT22;4343;53.648;10.098;2023-07-13T02:37:51;15.40;99.90
8611;DHT22;4343;53.648;10.098;2023-07-13T02:40:17;15.30;99.90
8611;DHT22;4343;53.648;10.098;2023-07-13T02:42:43;15.40;99.90
8611;DHT22;4343;53.648;10.098;2023-07-13T02:45:09;15.40;99.90
8611;DHT22;4343;53.648;10.098;2023-07-13T02:47:35;15.40;99.90
8611;DHT22;4343;53.648;10.098;2023-07-13T02:50:00;15.40;99.90
8611;DHT22;4343;53.648;10.098;2023-07-13T02:52:26;15.40;99.90
8611;DHT22;4343;53.648;10.098;2023-07-13T02:54:52;15.40;99.90
8611;DHT22;4343;53.648;10.098;2023-07-13T02:57:17;15.40;99.90
8611;DHT22;4343;53.648;10.098;2023-07-13T02:59:43;15.40;99.90
8611;DHT22;4343;53.648;10.098;2023-07-13T03:02:09;15.40;99.90
8611;DHT22;4343;53.648;10.098;2023-07-13T03:04:36;15.30;99.90
8611;DHT22;4343;53.648;10.098;2023-07-13T03:07:02;15.40;99.90
8611;DHT22;4343;53.648;10.098;2023-07-13T03:09:27;15.40;99.90
8611;DHT22;4343;53.648;10.098;2023-07-13T03:11:54;15.40;99.90
8611;DHT22;4343;53.648;10.098;2023-07-13T03:14:21;15.30;99.90
8611;DHT22;4343;53.648;10.098;2023-07-13T03:16:46;15.30;99.90
8611;DHT22;4343;53.648;10.098;2023-07-13T03:19:12;15.30;99.90
8611;DHT22;4343;53.648;10.098;2023-07-13T03:21:37;15.30;99.90
8611;DHT22;4343;53.648;10.098;2023-07-13T03:24:03;15.30;99.90
8611;DHT22;4343;53.648;10.098;2023-07-13T03:26:29;15.30;99.90
8611;DHT22;4343;53.648;10.098;2023-07-13T03:28:54;15.30;99.90
8611;DHT22;4343;53.648;10.098;2023-07-13T03:31:28;15.30;99.90
8611;DHT22;4343;53.648;10.098;2023-07-13T03:33:55;15.30;99.90
8611;DHT22;4343;53.648;10.098;2023-07-13T03:36:24;15.30;99.90
8611;DHT22;4343;53.648;10.098;2023-07-13T03:38:52;15.30;99.90
8611;DHT22;4343;53.648;10.098;2023-07-13T03:41:19;15.30;99.90
8611;DHT22;4343;53.648;10.098;2023-07-13T03:43:44;15.30;99.90
8611;DHT22;4343;53.648;10.098;2023-07-13T03:46:10;15.30;99.90
8611;DHT22;4343;53.648;10.098;2023-07-13T03:48:36;15.30;99.90
8611;DHT22;4343;53.648;10.098;2023-07-13T03:51:01;15.30;99.90
8611;DHT22;4343;53.648;10.098;2023-07-13T03:53:27;15.30;99.90
8611;DHT22;4343;53.648;10.098;2023-07-13T03:55:52;15.30;99.90
8611;DHT22;4343;53.648;10.098;2023-07-13T04:00:58;15.30;99.90
8611;DHT22;4343;53.648;10.098;2023-07-13T04:03:24;15.40;99.90
8611;DHT22;4343;53.648;10.098;2023-07-13T04:05:49;15.30;99.90
8611;DHT22;4343;53.648;10.098;2023-07-13T04:08:15;15.30;99.90
8611;DHT22;4343;53.648;10.098;2023-07-13T04:10:42;15.40;99.90
8611;DHT22;4343;53.648;10.098;2023-07-13T04:13:08;15.30;99.90
8611;DHT22;4343;53.648;10.098;2023-07-13T04:15:33;15.40;99.90
8611;DHT22;4343;53.648;10.098;2023-07-13T04:17:59;15.40;99.90
8611;DHT22;4343;53.648;10.098;2023-07-13T04:20:25;15.40;99.90
8611;DHT22;4343;53.648;10.098;2023-07-13T04:22:52;15.40;99.90
8611;DHT22;4343;53.648;10.098;2023-07-13T04:25:18;15.40;99.90
8611;DHT22;4343;53.648;10.098;2023-07-13T04:27:44;15.40;99.90
8611;DHT22;4343;53.648;10.098;2023-07-13T04:30:10;15.40;99.90
8611;DHT22;4343;53.648;10.098;2023-07-13T04:32:35;15.40;99.90
8611;DHT22;4343;53.648;10.098;2023-07-13T04:35:01;15.40;99.90
8611;DHT22;4343;53.648;10.098;2023-07-13T04:37:26;15.40;99.90
8611;DHT22;4343;53.648;10.098;2023-07-13T04:39:52;15.40;99.90
8611;DHT22;4343;53.648;10.098;2023-07-13T04:42:18;15.40;99.90
8611;DHT22;4343;53.648;10.098;2023-07-13T04:44:53;15.40;99.90
8611;DHT22;4343;53.648;10.098;2023-07-13T04:47:18;15.40;99.90
8611;DHT22;4343;53.648;10.098;2023-07-13T04:49:44;15.50;99.90
8611;DHT22;4343;53.648;10.098;2023-07-13T04:52:11;15.40;99.90
8611;DHT22;4343;53.648;10.098;2023-07-13T04:54:37;15.50;99.90
8611;DHT22;4343;53.648;10.098;2023-07-13T04:57:03;15.50;99.90
8611;DHT22;4343;53.648;10.098;2023-07-13T04:59:32;15.50;99.90
8611;DHT22;4343;53.648;10.098;2023-07-13T05:01:57;15.50;99.90
8611;DHT22;4343;53.648;10.098;2023-07-13T05:04:23;15.50;99.90
8611;DHT22;4343;53.648;10.098;2023-07-13T05:06:48;15.60;99.90
8611;DHT22;4343;53.648;10.098;2023-07-13T05:09:14;15.60;99.90
8611;DHT22;4343;53.648;10.098;2023-07-13T05:11:39;15.70;99.90
8611;DHT22;4343;53.648;10.098;2023-07-13T05:14:05;15.70;99.90
8611;DHT22;4343;53.648;10.098;2023-07-13T05:16:30;15.80;99.90
8611;DHT22;4343;53.648;10.098;2023-07-13T05:18:57;15.80;99.90
8611;DHT22;4343;53.648;10.098;2023-07-13T05:21:23;15.80;99.90
8611;DHT22;4343;53.648;10.098;2023-07-13T05:23:48;15.90;99.90
8611;DHT22;4343;53.648;10.098;2023-07-13T05:26:14;16.00;99.90
8611;DHT22;4343;53.648;10.098;2023-07-13T05:28:39;16.00;99.90
8611;DHT22;4343;53.648;10.098;2023-07-13T05:31:07;16.10;99.90
8611;DHT22;4343;53.648;10.098;2023-07-13T05:33:33;16.20;99.90
8611;DHT22;4343;53.648;10.098;2023-07-13T05:35:59;16.20;99.90
8611;DHT22;4343;53.648;10.098;2023-07-13T05:38:26;16.30;99.90
8611;DHT22;4343;53.648;10.098;2023-07-13T05:40:54;16.40;99.90
8611;DHT22;4343;53.648;10.098;2023-07-13T05:43:21;16.50;99.90
8611;DHT22;4343;53.648;10.098;2023-07-13T05:45:47;16.60;99.90
8611;DHT22;4343;53.648;10.098;2023-07-13T05:48:12;16.70;99.90
8611;DHT22;4343;53.648;10.098;2023-07-13T05:50:38;16.80;99.90
8611;DHT22;4343;53.648;10.098;2023-07-13T05:53:04;16.80;99.90
8611;DHT22;4343;53.648;10.098;2023-07-13T05:55:30;16.80;99.90
8611;DHT22;4343;53.648;10.098;2023-07-13T05:57:56;16.90;99.90
8611;DHT22;4343;53.648;10.098;2023-07-13T06:00:23;16.90;99.90
8611;DHT22;4343;53.648;10.098;2023-07-13T06:02:49;16.90;99.90
8611;DHT22;4343;53.648;10.098;2023-07-13T06:05:15;16.90;99.90
8611;DHT22;4343;53.648;10.098;2023-07-13T06:07:41;17.00;99.90
8611;DHT22;4343;53.648;10.098;2023-07-13T06:10:06;17.00;99.90
8611;DHT22;4343;53.648;10.098;2023-07-13T06:12:32;17.00;99.90
8611;DHT22;4343;53.648;10.098;2023-07-13T06:14:58;17.00;99.90
8611;DHT22;4343;53.648;10.098;2023-07-13T06:17:23;17.00;99.90
8611;DHT22;4343;53.648;10.098;2023-07-13T06:19:50;17.00;99.90
8611;DHT22;4343;53.648;10.098;2023-07-13T06:22:15;17.10;99.90
8611;DHT22;4343;53.648;10.098;2023-07-13T06:24:41;17.00;99.90
8611;DHT22;4343;53.648;10.098;2023-07-13T06:27:06;17.10;99.90
8611;DHT22;4343;53.648;10.098;2023-07-13T06:29:33;17.10;99.90
8611;DHT22;4343;53.648;10.098;2023-07-13T06:31:58;17.20;99.90
8611;DHT22;4343;53.648;10.098;2023-07-13T06:34:24;17.20;99.90
8611;DHT22;4343;53.648;10.098;2023-07-13T06:36:49;17.10;99.90
8611;DHT22;4343;53.648;10.098;2023-07-13T06:39:15;17.20;99.90
8611;DHT22;4343;53.648;10.098;2023-07-13T06:41:40;17.20;99.90
8611;DHT22;4343;53.648;10.098;2023-07-13T06:44:06;17.20;99.90
8611;DHT22;4343;53.648;10.098;2023-07-13T06:46:32;17.30;99.90
8611;DHT22;4343;53.648;10.098;2023-07-13T06:48:57;17.30;99.90
8611;DHT22;4343;53.648;10.098;2023-07-13T06:51:23;17.40;99.90
8611;DHT22;4343;53.648;10.098;2023-07-13T06:53:49;17.40;99.90
8611;DHT22;4343;53.648;10.098;2023-07-13T06:56:15;17.40;99.90
8611;DHT22;4343;53.648;10.098;2023-07-13T06:58:41;17.50;99.90
8611;DHT22;4343;53.648;10.098;2023-07-13T07:01:06;17.50;99.90
8611;DHT22;4343;53.648;10.098;2023-07-13T07:03:32;17.60;99.90
8611;DHT22;4343;53.648;10.098;2023-07-13T07:06:27;17.60;99.90
8611;DHT22;4343;53.648;10.098;2023-07-13T07:08:53;17.60;99.90
8611;DHT22;4343;53.648;10.098;2023-07-13T07:11:20;17.70;99.90
8611;DHT22;4343;53.648;10.098;2023-07-13T07:13:48;17.70;99.90
8611;DHT22;4343;53.648;10.098;2023-07-13T07:16:13;17.80;99.90
8611;DHT22;4343;53.648;10.098;2023-07-13T07:18:39;17.90;99.90
8611;DHT22;4343;53.648;10.098;2023-07-13T07:21:05;17.90;99.90
8611;DHT22;4343;53.648;10.098;2023-07-13T07:23:31;18.00;99.90
8611;DHT22;4343;53.648;10.098;2023-07-13T07:25:56;18.10;99.90
8611;DHT22;4343;53.648;10.098;2023-07-13T07:28:22;18.20;99.90
8611;DHT22;4343;53.648;10.098;2023-07-13T07:30:48;18.40;99.90
8611;DHT22;4343;53.648;10.098;2023-07-13T07:33:15;18.50;99.90
8611;DHT22;4343;53.648;10.098;2023-07-13T07:35:42;18.70;99.90
8611;DHT22;4343;53.648;10.098;2023-07-13T07:38:08;18.90;99.90
8611;DHT22;4343;53.648;10.098;2023-07-13T07:40:37;19.00;99.90
8611;DHT22;4343;53.648;10.098;2023-07-13T07:43:03;19.20;99.90
8611;DHT22;4343;53.648;10.098;2023-07-13T07:45:28;19.20;99.90
8611;DHT22;4343;53.648;10.098;2023-07-13T07:47:54;19.30;99.90
8611;DHT22;4343;53.648;10.098;2023-07-13T07:50:24;19.40;99.90
8611;DHT22;4343;53.648;10.098;2023-07-13T07:52:50;19.50;99.90
8611;DHT22;4343;53.648;10.098;2023-07-13T07:55:16;19.60;99.90
8611;DHT22;4343;53.648;10.098;2023-07-13T07:57:41;19.60;99.90
8611;DHT22;4343;53.648;10.098;2023-07-13T08:00:07;19.70;99.90
8611;DHT22;4343;53.648;10.098;2023-07-13T08:02:33;19.70;99.90
8611;DHT22;4343;53.648;10.098;2023-07-13T08:04:58;19.70;99.90
8611;DHT22;4343;53.648;10.098;2023-07-13T08:07:24;19.80;99.90
8611;DHT22;4343;53.648;10.098;2023-07-13T08:09:52;19.80;99.90
8611;DHT22;4343;53.648;10.098;2023-07-13T08:12:18;19.90;99.90
8611;DHT22;4343;53.648;10.098;2023-07-13T08:14:43;20.00;99.90
8611;DHT22;4343;53.648;10.098;2023-07-13T08:17:09;20.10;99.90
8611;DHT22;4343;53.648;10.098;2023-07-13T08:19:34;20.10;99.90
8611;DHT22;4343;53.648;10.098;2023-07-13T08:22:00;20.10;99.90
8611;DHT22;4343;53.648;10.098;2023-07-13T08:24:25;20.10;99.90
8611;DHT22;4343;53.648;10.098;2023-07-13T08:26:51;20.20;99.90
8611;DHT22;4343;53.648;10.098;2023-07-13T08:29:18;20.30;99.90
8611;DHT22;4343;53.648;10.098;2023-07-13T08:31:44;20.40;99.90
8611;DHT22;4343;53.648;10.098;2023-07-13T08:34:10;20.40;99.90
8611;DHT22;4343;53.648;10.098;2023-07-13T08:36:36;20.40;99.90
8611;DHT22;4343;53.648;10.098;2023-07-13T08:39:01;20.40;99.90
8611;DHT22;4343;53.648;10.098;2023-07-13T08:41:28;20.40;99.90
8611;DHT22;4343;53.648;10.098;2023-07-13T08:43:59;20.40;99.90
8611;DHT22;4343;53.648;10.098;2023-07-13T08:46:40;20.40;99.90
8611;DHT22;4343;53.648;10.098;2023-07-13T08:49:11;20.50;99.90
8611;DHT22;4343;53.648;10.098;2023-07-13T08:51:51;20.40;99.90
8611;DHT22;4343;53.648;10.098;2023-07-13T08:54:29;20.50;99.90
8611;DHT22;4343;53.648;10.098;2023-07-13T08:56:56;20.60;99.90
8611;DHT22;4343;53.648;10.098;2023-07-13T08:59:26;20.70;99.90
8611;DHT22;4343;53.648;10.098;2023-07-13T09:02:25;20.90;99.90
8611;DHT22;4343;53.648;10.098;2023-07-13T09:05:22;21.10;99.90
8611;DHT22;4343;53.648;10.098;2023-07-13T09:10:50;21.30;99.90
8611;DHT22;4343;53.648;10.098;2023-07-13T09:15:49;21.50;99.90
8611;DHT22;4343;53.648;10.098;2023-07-13T09:18:23;21.60;99.90
8611;DHT22;4343;53.648;10.098;2023-07-13T09:23:24;21.70;99.90
8611;DHT22;4343;53.648;10.098;2023-07-13T09:25:58;21.80;99.90
8611;DHT22;4343;53.648;10.098;2023-07-13T09:28:41;21.90;99.90
8611;DHT22;4343;53.648;10.098;2023-07-13T09:31:15;21.90;99.90
8611;DHT22;4343;53.648;10.098;2023-07-13T09:33:42;21.90;99.90
8611;DHT22;4343;53.648;10.098;2023-07-13T09:36:27;21.90;99.90
8611;DHT22;4343;53.648;10.098;2023-07-13T09:39:09;21.90;99.90
8611;DHT22;4343;53.648;10.098;2023-07-13T09:47:22;22.10;99.90
8611;DHT22;4343;53.648;10.098;2023-07-13T09:49:53;22.30;99.90
8611;DHT22;4343;53.648;10.098;2023-07-13T09:52:19;22.40;99.90
8611;DHT22;4343;53.648;10.098;2023-07-13T09:54:46;22.50;99.90
8611;DHT22;4343;53.648;10.098;2023-07-13T09:57:15;22.60;99.90
8611;DHT22;4343;53.648;10.098;2023-07-13T09:59:43;22.70;99.90
8611;DHT22;4343;53.648;10.098;2023-07-13T10:02:23;22.80;99.90
8611;DHT22;4343;53.648;10.098;2023-07-13T10:05:02;22.90;99.90
8611;DHT22;4343;53.648;10.098;2023-07-13T10:07:29;23.00;99.90
8611;DHT22;4343;53.648;10.098;2023-07-13T10:09:56;23.00;99.90
8611;DHT22;4343;53.648;10.098;2023-07-13T10:12:23;23.00;99.90
8611;DHT22;4343;53.648;10.098;2023-07-13T10:14:52;22.90;99.90
8611;DHT22;4343;53.648;10.098;2023-07-13T10:17:27;22.90;99.90
8611;DHT22;4343;53.648;10.098;2023-07-13T10:19:58;22.90;99.90
8611;DHT22;4343;53.648;10.098;2023-07-13T10:23:04;22.80;99.90
8611;DHT22;4343;53.648;10.098;2023-07-13T10:25:37;22.70;99.90
8611;DHT22;4343;53.648;10.098;2023-07-13T10:28:28;22.60;99.90
8611;DHT22;4343;53.648;10.098;2023-07-13T10:30:53;22.50;99.90
8611;DHT22;4343;53.648;10.098;2023-07-13T10:33:20;22.50;99.90
8611;DHT22;4343;53.648;10.098;2023-07-13T10:35:47;22.60;99.90
8611;DHT22;4343;53.648;10.098;2023-07-13T10:38:22;22.70;99.90
8611;DHT22;4343;53.648;10.098;2023-07-13T10:41:02;22.80;99.90
8611;DHT22;4343;53.648;10.098;2023-07-13T10:43:34;22.90;99.90
8611;DHT22;4343;53.648;10.098;2023-07-13T10:46:03;23.00;99.90
8611;DHT22;4343;53.648;10.098;2023-07-13T10:48:30;23.10;99.90
8611;DHT22;4343;53.648;10.098;2023-07-13T10:50:58;23.10;99.90
8611;DHT22;4343;53.648;10.098;2023-07-13T10:53:34;23.10;99.90
8611;DHT22;4343;53.648;10.098;2023-07-13T10:56:01;23.00;99.90
8611;DHT22;4343;53.648;10.098;2023-07-13T10:58:28;23.10;99.90
8611;DHT22;4343;53.648;10.098;2023-07-13T11:01:09;23.20;99.90
8611;DHT22;4343;53.648;10.098;2023-07-13T11:03:50;23.30;99.90
8611;DHT22;4343;53.648;10.098;2023-07-13T11:08:57;23.40;99.90
8611;DHT22;4343;53.648;10.098;2023-07-13T11:24:29;23.90;99.90
8611;DHT22;4343;53.648;10.098;2023-07-13T11:26:56;24.10;99.90
8611;DHT22;4343;53.648;10.098;2023-07-13T11:29:48;24.20;99.90
8611;DHT22;4343;53.648;10.098;2023-07-13T11:32:30;24.20;99.90
8611;DHT22;4343;53.648;10.098;2023-07-13T11:34:57;24.20;99.90
8611;DHT22;4343;53.648;10.098;2023-07-13T11:37:23;24.20;99.90
8611;DHT22;4343;53.648;10.098;2023-07-13T11:39:51;24.20;99.90
8611;DHT22;4343;53.648;10.098;2023-07-13T11:42:18;24.30;99.90
8611;DHT22;4343;53.648;10.098;2023-07-13T11:44:47;24.40;99.90
8611;DHT22;4343;53.648;10.098;2023-07-13T11:47:22;24.50;99.90
8611;DHT22;4343;53.648;10.098;2023-07-13T11:49:50;24.60;99.90
8611;DHT22;4343;53.648;10.098;2023-07-13T11:52:20;24.70;99.90
8611;DHT22;4343;53.648;10.098;2023-07-13T11:54:55;24.70;99.90
8611;DHT22;4343;53.648;10.098;2023-07-13T11:57:26;24.80;99.90
8611;DHT22;4343;53.648;10.098;2023-07-13T11:59:54;25.00;99.90
8611;DHT22;4343;53.648;10.098;2023-07-13T12:02:29;25.10;99.90
8611;DHT22;4343;53.648;10.098;2023-07-13T12:04:56;25.30;99.90
8611;DHT22;4343;53.648;10.098;2023-07-13T12:07:22;25.30;99.90
8611;DHT22;4343;53.648;10.098;2023-07-13T12:09:48;25.30;99.90
8611;DHT22;4343;53.648;10.098;2023-07-13T12:12:22;25.30;99.90
8611;DHT22;4343;53.648;10.098;2023-07-13T12:14:51;25.30;99.90
8611;DHT22;4343;53.648;10.098;2023-07-13T12:17:22;25.10;99.90
8611;DHT22;4343;53.648;10.098;2023-07-13T12:19:49;25.10;99.90
8611;DHT22;4343;53.648;10.098;2023-07-13T12:22:16;24.80;99.90
8611;DHT22;4343;53.648;10.098;2023-07-13T12:24:44;24.60;99.90
8611;DHT22;4343;53.648;10.098;2023-07-13T12:27:23;24.20;99.90
8611;DHT22;4343;53.648;10.098;2023-07-13T12:29:58;23.90;99.90
8611;DHT22;4343;53.648;10.098;2023-07-13T12:32:25;23.60;99.90
8611;DHT22;4343;53.648;10.098;2023-07-13T12:34:56;23.20;99.90
8611;DHT22;4343;53.648;10.098;2023-07-13T12:37:23;22.90;99.90
8611;DHT22;4343;53.648;10.098;2023-07-13T12:42:48;22.30;99.90
8611;DHT22;4343;53.648;10.098;2023-07-13T12:45:33;21.90;99.90
8611;DHT22;4343;53.648;10.098;2023-07-13T12:48:15;21.70;99.90
8611;DHT22;4343;53.648;10.098;2023-07-13T12:50:48;21.50;99.90
8611;DHT22;4343;53.648;10.098;2023-07-13T12:53:39;21.40;99.90
8611;DHT22;4343;53.648;10.098;2023-07-13T12:56:05;21.30;99.90
8611;DHT22;4343;53.648;10.098;2023-07-13T12:58:41;21.20;99.90
8611;DHT22;4343;53.648;10.098;2023-07-13T13:01:10;21.10;99.90
8611;DHT22;4343;53.648;10.098;2023-07-13T13:03:40;21.10;99.90
8611;DHT22;4343;53.648;10.098;2023-07-13T13:06:24;21.10;99.90
8611;DHT22;4343;53.648;10.098;2023-07-13T13:08:57;21.20;99.90
8611;DHT22;4343;53.648;10.098;2023-07-13T13:11:28;21.30;99.90
8611;DHT22;4343;53.648;10.098;2023-07-13T13:13:54;21.40;99.90
8611;DHT22;4343;53.648;10.098;2023-07-13T13:16:30;21.50;99.90
8611;DHT22;4343;53.648;10.098;2023-07-13T13:19:24;21.50;99.90
8611;DHT22;4343;53.648;10.098;2023-07-13T13:21:51;21.70;99.90
8611;DHT22;4343;53.648;10.098;2023-07-13T13:24:20;21.70;99.90
8611;DHT22;4343;53.648;10.098;2023-07-13T13:26:46;21.70;99.90
8611;DHT22;4343;53.648;10.098;2023-07-13T13:29:14;21.60;99.90
8611;DHT22;4343;53.648;10.098;2023-07-13T13:31:40;21.60;99.90
8611;DHT22;4343;53.648;10.098;2023-07-13T13:34:11;21.60;99.90
8611;DHT22;4343;53.648;10.098;2023-07-13T13:36:37;21.60;99.90
8611;DHT22;4343;53.648;10.098;2023-07-13T13:39:50;21.50;99.90
8611;DHT22;4343;53.648;10.098;2023-07-13T13:41:53;21.50;99.90
8611;DHT22;4343;53.648;10.098;2023-07-13T13:44:20;21.40;99.90
8611;DHT22;4343;53.648;10.098;2023-07-13T13:46:47;21.40;99.90
8611;DHT22;4343;53.648;10.098;2023-07-13T13:49:16;21.40;99.90
8611;DHT22;4343;53.648;10.098;2023-07-13T13:51:43;21.30;99.90
8611;DHT22;4343;53.648;10.098;2023-07-13T13:54:13;21.30;99.90
8611;DHT22;4343;53.648;10.098;2023-07-13T13:56:42;21.30;99.90
8611;DHT22;4343;53.648;10.098;2023-07-13T13:59:07;21.30;99.90
8611;DHT22;4343;53.648;10.098;2023-07-13T14:01:34;21.30;99.90
8611;DHT22;4343;53.648;10.098;2023-07-13T14:04:00;21.30;99.90
8611;DHT22;4343;53.648;10.098;2023-07-13T14:06:26;21.20;99.90
8611;DHT22;4343;53.648;10.098;2023-07-13T14:08:51;21.10;99.90
8611;DHT22;4343;53.648;10.098;2023-07-13T14:11:19;21.10;99.90
8611;DHT22;4343;53.648;10.098;2023-07-13T14:13:49;21.00;99.90
8611;DHT22;4343;53.648;10.098;2023-07-13T14:16:17;21.00;99.90
8611;DHT22;4343;53.648;10.098;2023-07-13T14:18:46;20.90;99.90
8611;DHT22;4343;53.648;10.098;2023-07-13T14:21:18;20.90;99.90
8611;DHT22;4343;53.648;10.098;2023-07-13T14:23:45;20.90;99.90
8611;DHT22;4343;53.648;10.098;2023-07-13T14:26:22;20.90;99.90
8611;DHT22;4343;53.648;10.098;2023-07-13T14:28:50;20.90;99.90
8611;DHT22;4343;53.648;10.098;2023-07-13T14:31:17;21.00;99.90
8611;DHT22;4343;53.648;10.098;2023-07-13T14:33:43;20.90;99.90
8611;DHT22;4343;53.648;10.098;2023-07-13T14:36:37;20.90;99.90
8611;DHT22;4343;53.648;10.098;2023-07-13T14:39:30;20.90;99.90
8611;DHT22;4343;53.648;10.098;2023-07-13T14:41:56;20.90;99.90
8611;DHT22;4343;53.648;10.098;2023-07-13T14:44:28;20.80;99.90
8611;DHT22;4343;53.648;10.098;2023-07-13T14:46:55;20.80;99.90
8611;DHT22;4343;53.648;10.098;2023-07-13T14:49:28;20.80;99.90
8611;DHT22;4343;53.648;10.098;2023-07-13T14:51:58;20.90;99.90
8611;DHT22;4343;53.648;10.098;2023-07-13T14:54:24;20.90;99.90
8611;DHT22;4343;53.648;10.098;2023-07-13T14:56:49;20.90;99.90
8611;DHT22;4343;53.648;10.098;2023-07-13T14:59:16;20.90;99.90
8611;DHT22;4343;53.648;10.098;2023-07-13T15:01:45;20.90;99.90
8611;DHT22;4343;53.648;10.098;2023-07-13T15:04:11;20.90;99.90
8611;DHT22;4343;53.648;10.098;2023-07-13T15:06:58;20.90;99.90
8611;DHT22;4343;53.648;10.098;2023-07-13T15:09:26;20.90;99.90
8611;DHT22;4343;53.648;10.098;2023-07-13T15:12:01;20.90;99.90
8611;DHT22;4343;53.648;10.098;2023-07-13T15:14:27;20.90;99.90
8611;DHT22;4343;53.648;10.098;2023-07-13T15:16:54;20.90;99.90
8611;DHT22;4343;53.648;10.098;2023-07-13T15:19:26;20.90;99.90
8611;DHT22;4343;53.648;10.098;2023-07-13T15:21:57;20.90;99.90
8611;DHT22;4343;53.648;10.098;2023-07-13T15:24:23;20.90;99.90
8611;DHT22;4343;53.648;10.098;2023-07-13T15:26:50;20.90;99.90
8611;DHT22;4343;53.648;10.098;2023-07-13T15:29:18;20.90;99.90
8611;DHT22;4343;53.648;10.098;2023-07-13T15:31:44;20.90;99.90
8611;DHT22;4343;53.648;10.098;2023-07-13T15:34:12;20.90;99.90
8611;DHT22;4343;53.648;10.098;2023-07-13T15:36:40;20.90;99.90
8611;DHT22;4343;53.648;10.098;2023-07-13T15:39:14;20.90;99.90
8611;DHT22;4343;53.648;10.098;2023-07-13T15:41:41;20.90;99.90
8611;DHT22;4343;53.648;10.098;2023-07-13T15:44:29;20.80;99.90
8611;DHT22;4343;53.648;10.098;2023-07-13T15:46:55;20.80;99.90
8611;DHT22;4343;53.648;10.098;2023-07-13T15:49:23;20.80;99.90
8611;DHT22;4343;53.648;10.098;2023-07-13T15:52:17;20.80;99.90
8611;DHT22;4343;53.648;10.098;2023-07-13T15:54:59;20.80;99.90
8611;DHT22;4343;53.648;10.098;2023-07-13T15:57:26;20.80;99.90
8611;DHT22;4343;53.648;10.098;2023-07-13T15:59:57;20.80;99.90
8611;DHT22;4343;53.648;10.098;2023-07-13T16:02:25;20.80;99.90
8611;DHT22;4343;53.648;10.098;2023-07-13T16:04:50;20.80;99.90
8611;DHT22;4343;53.648;10.098;2023-07-13T16:07:16;20.80;99.90
8611;DHT22;4343;53.648;10.098;2023-07-13T16:09:44;20.80;99.90
8611;DHT22;4343;53.648;10.098;2023-07-13T16:12:14;20.80;99.90
8611;DHT22;4343;53.648;10.098;2023-07-13T16:14:44;20.70;99.90
8611;DHT22;4343;53.648;10.098;2023-07-13T16:17:11;20.70;99.90
8611;DHT22;4343;53.648;10.098;2023-07-13T16:19:37;20.70;99.90
8611;DHT22;4343;53.648;10.098;2023-07-13T16:22:03;20.70;99.90
8611;DHT22;4343;53.648;10.098;2023-07-13T16:24:39;20.60;99.90
8611;DHT22;4343;53.648;10.098;2023-07-13T16:27:06;20.70;99.90
8611;DHT22;4343;53.648;10.098;2023-07-13T16:29:35;20.70;99.90
8611;DHT22;4343;53.648;10.098;2023-07-13T16:32:12;20.60;99.90